Space Coast Regional Airport
KTIX : now visible

Airfield :











YOU CAN JOIN US ON...

 
LOGIN :

Register | Disclaimer

   EN    FR    IT 

 









Legend :    VFR   Marginal VFR   IFR   Intensive IFR   Very Intensive IFR
Visi :
Ceiling :
>= 8 km
>= 3000ft
5 to 8 km
1000 to 3000 ft
1500m to 5 km
500 to 1000 ft
800 to 1500m
200 to 500 ft
< 800m
< 200 ft
Symbols :   Thunderstorms  Fog  Heavy snow  Heavy precipitations  Wind > 20 kt






- Airport Elevation : 34 ft


KTIX - Space Coast Regional

CURRENT METAR :
  • 211246Z 15005KT 7SM BKN080 24/24 A2999

EXPIRED METARs :
  • 211146Z 15005KT 7SM SCT080 26/25 A2998
  • 211046Z 15005KT 7SM FEW080 25/24 A2996

TAF KTIX
Valid from the 21 at 12:00 until the 22 at 12:00 UTC


211142Z 2112/2212 21003KT P6SM OVC080
FM211400 14005KT P6SM FEW035 BKN080
FM211800 15008KT P6SM VCSH BKN045
TEMPO 2119/2121 3SM SHRA BKN035
FM220000 18004KT P6SM SCT030 BKN120



MET'MAP, your aeronautical weather chart ! - Copyright ORBIFLY December 2007 - Disclaimer

ORBIFLY MET'MAP TEAM :

Programming & Development : Alexandra Zaïnal
Concept & Development : Baudouin d'Aumeries
Co-Development & Prog : Marc-Olivier Méhu
Technical & hardware support : Manuel Goepfert

Contact : metmap@orbifly.com




SOURCES & CREDITS :

   NOAA       Earth
Advisory